Time;durP1;ratioP1;P1;durP2;ratioP2;P2;SDS_P1;SDS_P2;PMS_P1;PMS_P2;Temp;Humidity;BMP_temperature;BMP_pressure;BME280_temperature;BME280_humidity;BME280_pressure;Samples;Min_cycle;Max_cycle;Signal;HPM_P1;HPM_P2
2023/03/21 00:01:52;;;;;;;;;;;20.80;54.40;;;;;;4804934;55;20068;-35
2023/03/21 00:06:53;;;;;;;;;;;20.80;54.40;;;;;;4795748;55;20072;-34
2023/03/21 00:11:54;;;;;;;;;;;20.80;54.40;;;;;;5013249;55;20072;-32
2023/03/21 00:16:55;;;;;;;;;;;20.80;54.40;;;;;;4788927;55;20068;-33
2023/03/21 00:21:56;;;;;;;;;;;20.80;54.40;;;;;;5034659;55;20072;-34
2023/03/21 00:26:57;;;;;;;;;;;20.80;54.30;;;;;;4773026;55;20072;-35
2023/03/21 00:31:58;;;;;;;;;;;20.80;54.30;;;;;;4880167;55;20092;-35
2023/03/21 00:37:00;;;;;;;;;;;20.80;54.40;;;;;;4884887;55;20064;-33
2023/03/21 00:42:01;;;;;;;;;;;20.80;54.40;;;;;;4774933;55;20374;-35
2023/03/21 00:47:02;;;;;;;;;;;20.80;54.30;;;;;;4830862;55;20100;-35
2023/03/21 00:52:05;;;;;;;;;;;20.80;54.30;;;;;;4973356;55;20153;-34
2023/03/21 00:57:06;;;;;;;;;;;20.80;54.40;;;;;;4954184;55;20299;-34
2023/03/21 01:02:06;;;;;;;;;;;20.80;54.30;;;;;;4860771;55;20072;-34
2023/03/21 01:07:07;;;;;;;;;;;20.80;54.40;;;;;;4916941;55;20069;-35
2023/03/21 01:12:08;;;;;;;;;;;20.80;54.30;;;;;;4839849;55;20144;-35
2023/03/21 01:17:09;;;;;;;;;;;20.80;54.30;;;;;;4924358;55;20371;-33
2023/03/21 01:22:10;;;;;;;;;;;20.80;54.40;;;;;;4876886;55;20092;-35
2023/03/21 01:27:11;;;;;;;;;;;20.80;54.40;;;;;;4756850;55;20128;-35
2023/03/21 01:32:11;;;;;;;;;;;20.80;54.40;;;;;;4959573;55;20068;-35
2023/03/21 01:37:13;;;;;;;;;;;20.80;54.30;;;;;;4956868;55;20108;-34
2023/03/21 01:42:14;;;;;;;;;;;20.80;54.30;;;;;;4836511;55;20310;-34
2023/03/21 01:47:15;;;;;;;;;;;20.80;54.20;;;;;;4841993;55;20088;-36
2023/03/21 01:52:25;;;;;;;;;;;20.80;54.30;;;;;;4757576;55;20072;-34
2023/03/21 01:57:31;;;;;;;;;;;20.80;54.30;;;;;;4856271;55;20072;-34
2023/03/21 02:02:32;;;;;;;;;;;20.80;54.20;;;;;;5168788;55;20354;-34
2023/03/21 02:07:35;;;;;;;;;;;20.80;54.20;;;;;;4788507;55;20072;-35
2023/03/21 02:12:37;;;;;;;;;;;20.80;54.20;;;;;;4751984;55;20116;-34
2023/03/21 02:17:48;;;;;;;;;;;20.80;54.20;;;;;;4840762;55;20318;-35
2023/03/21 02:23:07;;;;;;;;;;;20.80;54.20;;;;;;4884471;55;20076;-33
2023/03/21 02:28:13;;;;;;;;;;;20.80;54.20;;;;;;4885584;55;20212;-36
2023/03/21 02:34:48;;;;;;;;;;;20.80;54.50;;;;;;4972045;55;20076;-33
2023/03/21 02:42:47;;;;;;;;;;;20.80;54.20;;;;;;4861357;55;20073;-35
2023/03/21 02:47:50;;;;;;;;;;;20.80;54.20;;;;;;4901229;55;20291;-36
2023/03/21 02:52:52;;;;;;;;;;;20.80;54.10;;;;;;5008288;55;20306;-35
2023/03/21 02:57:54;;;;;;;;;;;20.80;54.10;;;;;;4988506;55;20052;-35
2023/03/21 03:02:55;;;;;;;;;;;20.80;54.10;;;;;;4827488;55;20283;-35
2023/03/21 03:08:05;;;;;;;;;;;20.80;54.10;;;;;;5078035;55;20061;-35
2023/03/21 03:13:28;;;;;;;;;;;20.80;54.10;;;;;;4980790;55;20112;-33
2023/03/21 03:18:48;;;;;;;;;;;20.80;54.10;;;;;;4948109;55;20302;-35
2023/03/21 03:23:59;;;;;;;;;;;20.80;54.10;;;;;;4932917;55;20076;-35
2023/03/21 03:29:03;;;;;;;;;;;20.80;54.10;;;;;;4968376;55;20298;-34
2023/03/21 03:34:12;;;;;;;;;;;20.70;54.00;;;;;;4872778;55;20343;-35
2023/03/21 03:39:14;;;;;;;;;;;20.80;54.10;;;;;;5238554;55;20160;-33
2023/03/21 03:44:15;;;;;;;;;;;20.80;54.00;;;;;;5133881;55;20104;-34
2023/03/21 03:49:26;;;;;;;;;;;20.70;54.80;;;;;;4760691;55;20096;-35
2023/03/21 03:54:29;;;;;;;;;;;20.70;54.00;;;;;;4785344;55;20072;-35
2023/03/21 03:59:32;;;;;;;;;;;20.80;54.10;;;;;;5113268;55;20302;-33
2023/03/21 04:04:33;;;;;;;;;;;20.70;54.00;;;;;;4942901;55;20109;-33
2023/03/21 04:09:33;;;;;;;;;;;20.70;53.90;;;;;;4751241;58;20072;-33
2023/03/21 04:14:34;;;;;;;;;;;20.70;54.00;;;;;;4751675;58;20068;-34
2023/03/21 04:19:35;;;;;;;;;;;20.80;54.00;;;;;;4939072;55;20370;-33
2023/03/21 04:24:36;;;;;;;;;;;20.70;53.90;;;;;;4808854;55;20108;-34
2023/03/21 04:29:36;;;;;;;;;;;20.80;54.00;;;;;;5146898;55;20052;-35
2023/03/21 04:34:39;;;;;;;;;;;20.70;53.90;;;;;;5157550;55;20112;-34
2023/03/21 04:39:40;;;;;;;;;;;20.70;53.90;;;;;;4758136;55;20287;-34
2023/03/21 04:44:40;;;;;;;;;;;20.70;54.00;;;;;;5018015;55;20290;-39
2023/03/21 04:49:42;;;;;;;;;;;20.70;54.10;;;;;;4879258;55;20064;-33
2023/03/21 04:54:42;;;;;;;;;;;20.70;54.20;;;;;;4828473;55;20104;-34
2023/03/21 04:59:43;;;;;;;;;;;20.70;54.20;;;;;;4788526;55;20076;-35
2023/03/21 05:04:44;;;;;;;;;;;20.70;54.20;;;;;;4756401;55;20052;-34
2023/03/21 05:09:45;;;;;;;;;;;20.70;54.50;;;;;;4827203;55;20358;-34
2023/03/21 05:14:45;;;;;;;;;;;20.70;54.30;;;;;;4806803;55;20299;-35
2023/03/21 05:19:46;;;;;;;;;;;20.70;54.30;;;;;;4755016;55;20116;-34
2023/03/21 05:24:49;;;;;;;;;;;20.70;54.30;;;;;;4802383;55;20057;-35
2023/03/21 05:29:49;;;;;;;;;;;20.70;54.30;;;;;;4815939;55;20307;-35
2023/03/21 05:34:50;;;;;;;;;;;20.70;54.30;;;;;;4800970;55;20136;-34
2023/03/21 05:39:51;;;;;;;;;;;20.70;54.30;;;;;;4941240;55;20230;-32
2023/03/21 05:44:51;;;;;;;;;;;20.70;54.40;;;;;;5043920;55;20073;-33
2023/03/21 05:49:52;;;;;;;;;;;20.70;54.40;;;;;;4796805;55;20085;-33
2023/03/21 05:54:53;;;;;;;;;;;20.70;54.30;;;;;;4755930;55;20057;-31
2023/03/21 05:59:53;;;;;;;;;;;20.70;54.30;;;;;;4751763;55;20100;-33
2023/03/21 06:04:55;;;;;;;;;;;20.70;54.30;;;;;;4911926;55;20065;-34
2023/03/21 06:09:56;;;;;;;;;;;20.70;54.30;;;;;;4801471;55;20347;-34
2023/03/21 06:14:56;;;;;;;;;;;20.70;54.30;;;;;;4920075;55;20052;-34
2023/03/21 06:19:59;;;;;;;;;;;20.70;54.30;;;;;;4848414;55;20290;-34
2023/03/21 06:25:00;;;;;;;;;;;20.70;54.20;;;;;;4946773;55;20322;-32
2023/03/21 06:30:02;;;;;;;;;;;20.70;54.20;;;;;;4843835;55;20057;-34
2023/03/21 06:35:03;;;;;;;;;;;20.70;54.20;;;;;;4752114;58;20124;-35
2023/03/21 06:40:07;;;;;;;;;;;20.70;54.20;;;;;;4866189;55;20279;-34
2023/03/21 06:45:08;;;;;;;;;;;20.70;54.20;;;;;;5113374;55;20390;-34
2023/03/21 06:50:09;;;;;;;;;;;20.70;54.20;;;;;;4787097;55;20093;-35
2023/03/21 06:55:10;;;;;;;;;;;20.70;54.10;;;;;;4841011;55;20327;-35
2023/03/21 07:00:11;;;;;;;;;;;20.70;54.10;;;;;;5191817;55;20065;-33
2023/03/21 07:05:12;;;;;;;;;;;20.70;54.10;;;;;;5016239;55;20080;-38
2023/03/21 07:10:13;;;;;;;;;;;20.70;54.10;;;;;;4779892;55;20346;-33
2023/03/21 07:15:13;;;;;;;;;;;20.70;54.10;;;;;;4830589;55;20060;-32
2023/03/21 07:20:14;;;;;;;;;;;20.70;54.10;;;;;;4828107;55;20308;-32
2023/03/21 07:25:16;;;;;;;;;;;20.70;54.10;;;;;;4808091;55;20343;-36
2023/03/21 07:30:17;;;;;;;;;;;20.70;54.20;;;;;;4774288;55;20374;-33
2023/03/21 07:35:17;;;;;;;;;;;20.70;54.10;;;;;;4837541;55;20112;-34
2023/03/21 07:40:18;;;;;;;;;;;20.70;54.10;;;;;;4751618;58;20112;-34
2023/03/21 07:45:20;;;;;;;;;;;20.70;54.10;;;;;;4851861;55;20539;-35
2023/03/21 07:50:21;;;;;;;;;;;20.70;54.10;;;;;;4816069;55;20291;-35
2023/03/21 07:55:22;;;;;;;;;;;20.70;53.90;;;;;;4749997;55;20121;-32
2023/03/21 08:00:23;;;;;;;;;;;20.80;54.30;;;;;;4779433;55;20076;-33
2023/03/21 08:05:26;;;;;;;;;;;20.80;54.70;;;;;;4752334;55;20068;-31
2023/03/21 08:10:27;;;;;;;;;;;20.80;55.10;;;;;;4751129;58;20116;-30
2023/03/21 08:15:27;;;;;;;;;;;20.90;55.90;;;;;;4752480;55;20370;-31
2023/03/21 08:20:28;;;;;;;;;;;20.90;55.60;;;;;;4771294;55;20061;-31
2023/03/21 08:25:29;;;;;;;;;;;21.00;55.90;;;;;;4792403;55;20075;-31
2023/03/21 08:30:30;;;;;;;;;;;21.00;56.00;;;;;;4751581;58;20375;-31
2023/03/21 08:35:31;;;;;;;;;;;21.10;56.10;;;;;;4750922;56;20072;-31
2023/03/21 08:40:32;;;;;;;;;;;21.10;56.50;;;;;;4848098;55;20076;-31
2023/03/21 08:45:32;;;;;;;;;;;21.10;56.50;;;;;;4779991;55;20120;-33
2023/03/21 08:50:33;;;;;;;;;;;21.20;56.80;;;;;;4932631;55;20355;-32
2023/03/21 08:55:34;;;;;;;;;;;21.20;56.90;;;;;;4750457;58;20057;-31
2023/03/21 09:00:35;;;;;;;;;;;21.20;57.00;;;;;;4897399;55;20112;-30
2023/03/21 09:05:35;;;;;;;;;;;21.30;57.20;;;;;;4751433;58;20068;-27
2023/03/21 09:10:36;;;;;;;;;;;21.30;57.40;;;;;;4861431;55;20136;-35
2023/03/21 09:15:36;;;;;;;;;;;21.30;57.50;;;;;;4760007;55;20287;-32
2023/03/21 09:20:37;;;;;;;;;;;21.30;57.70;;;;;;4836519;55;20374;-32
2023/03/21 09:25:39;;;;;;;;;;;21.30;57.70;;;;;;4764338;55;20108;-33
2023/03/21 09:30:40;;;;;;;;;;;21.40;57.90;;;;;;4751422;58;20327;-31
2023/03/21 09:35:41;;;;;;;;;;;21.40;58.00;;;;;;4779166;55;20298;-31
2023/03/21 09:41:00;;;;;;;;;;;21.40;58.30;;;;;;4991415;55;20072;-31
2023/03/21 09:47:28;;;;;;;;;;;21.40;58.10;;;;;;4751802;55;20315;-30
2023/03/21 09:52:36;;;;;;;;;;;21.40;58.50;;;;;;4834820;55;20362;-32
2023/03/21 09:57:40;;;;;;;;;;;21.50;58.50;;;;;;4767982;55;20271;-35
2023/03/21 10:02:46;;;;;;;;;;;21.50;58.20;;;;;;4966562;55;20342;-32
2023/03/21 10:07:52;;;;;;;;;;;21.50;58.00;;;;;;4749249;58;20084;-35
2023/03/21 10:12:53;;;;;;;;;;;21.50;57.90;;;;;;4768058;55;20338;-35
2023/03/21 10:18:02;;;;;;;;;;;21.40;57.70;;;;;;4871494;55;20279;-31
2023/03/21 10:23:05;;;;;;;;;;;21.40;57.50;;;;;;4762526;55;20076;-31
2023/03/21 10:28:07;;;;;;;;;;;21.40;57.40;;;;;;4951840;55;20126;-33
2023/03/21 10:33:10;;;;;;;;;;;21.40;57.40;;;;;;4794256;55;20128;-29
2023/03/21 10:38:15;;;;;;;;;;;21.40;57.50;;;;;;4789496;55;20068;-29
2023/03/21 10:43:36;;;;;;;;;;;21.40;57.90;;;;;;4770424;55;20073;-31
2023/03/21 10:48:39;;;;;;;;;;;21.50;58.20;;;;;;4838066;55;20064;-31
2023/03/21 10:53:44;;;;;;;;;;;21.50;58.30;;;;;;4768202;55;20359;-32
2023/03/21 10:58:46;;;;;;;;;;;21.50;58.60;;;;;;4749122;55;20341;-32
2023/03/21 11:03:47;;;;;;;;;;;21.60;58.60;;;;;;4861514;55;20279;-34
2023/03/21 11:08:53;;;;;;;;;;;21.60;58.90;;;;;;4966021;55;20122;-36
2023/03/21 11:13:58;;;;;;;;;;;21.60;59.00;;;;;;4875642;55;20120;-31
2023/03/21 11:19:01;;;;;;;;;;;21.60;59.00;;;;;;4763436;55;20267;-38
2023/03/21 11:24:02;;;;;;;;;;;21.60;59.00;;;;;;4783034;55;20112;-32
2023/03/21 11:29:21;;;;;;;;;;;21.70;59.20;;;;;;4750253;58;20056;-33
2023/03/21 11:36:14;;;;;;;;;;;21.70;59.30;;;;;;4819933;55;20112;-33
2023/03/21 11:41:27;;;;;;;;;;;21.70;59.40;;;;;;4750990;58;20334;-31
2023/03/21 11:46:29;;;;;;;;;;;21.70;59.60;;;;;;4808126;55;20056;-34
2023/03/21 11:55:02;;;;;;;;;;;21.70;59.60;;;;;;4901871;55;20164;-27
2023/03/21 12:00:24;;;;;;;;;;;21.80;60.10;;;;;;4800659;55;20112;-40
2023/03/21 12:05:27;;;;;;;;;;;21.80;59.80;;;;;;4749379;58;20122;-38
2023/03/21 12:17:16;;;;;;;;;;;21.80;59.90;;;;;;4864641;55;20064;-38
2023/03/21 12:23:38;;;;;;;;;;;21.80;60.80;;;;;;4967364;55;20123;-40
2023/03/21 12:28:55;;;;;;;;;;;21.90;59.70;;;;;;4794590;55;20364;-35
2023/03/21 12:40:44;;;;;;;;;;;21.90;59.50;;;;;;4763938;55;20370;-37
2023/03/21 12:45:47;;;;;;;;;;;21.80;59.40;;;;;;4828957;55;20287;-35
2023/03/21 12:50:50;;;;;;;;;;;21.80;59.20;;;;;;4787091;55;20120;-36
2023/03/21 12:55:51;;;;;;;;;;;21.80;59.20;;;;;;4838553;55;20068;-39
2023/03/21 13:00:53;;;;;;;;;;;21.80;59.30;;;;;;4862335;55;20096;-36
2023/03/21 13:05:59;;;;;;;;;;;21.80;59.50;;;;;;4801586;55;20056;-37
2023/03/21 13:11:00;;;;;;;;;;;21.80;59.50;;;;;;4761215;55;20155;-38
2023/03/21 13:16:03;;;;;;;;;;;21.80;59.80;;;;;;4757688;55;20132;-35
2023/03/21 13:21:09;;;;;;;;;;;21.80;60.10;;;;;;4868697;55;20112;-37
2023/03/21 13:26:11;;;;;;;;;;;21.90;60.20;;;;;;4793252;55;20274;-34
2023/03/21 13:31:17;;;;;;;;;;;21.80;60.30;;;;;;4818685;55;20295;-34
2023/03/21 13:36:28;;;;;;;;;;;21.90;60.50;;;;;;4901309;55;20068;-40
2023/03/21 13:41:30;;;;;;;;;;;21.80;60.60;;;;;;4799949;55;20068;-35
2023/03/21 13:46:35;;;;;;;;;;;21.90;60.60;;;;;;4751045;58;20303;-35
